createdAt,value
2022-11-04T00:01:52.464Z,5.47
2022-11-04T00:04:24.207Z,5.47
2022-11-04T00:06:52.898Z,6.18
2022-11-04T00:09:23.524Z,4.78
2022-11-04T00:12:10.378Z,4.82
2022-11-04T00:14:38.910Z,4.88
2022-11-04T00:17:19.450Z,5.95
2022-11-04T00:20:07.683Z,5.78
2022-11-04T00:22:54.467Z,4.72
2022-11-04T00:28:30.888Z,5.38
2022-11-04T00:31:21.130Z,5.20
2022-11-04T00:33:49.579Z,4.72
2022-11-04T00:36:19.562Z,4.75
2022-11-04T00:38:48.414Z,5.10
2022-11-04T00:41:30.181Z,5.30
2022-11-04T00:44:00.563Z,4.85
2022-11-04T00:46:29.994Z,5.43
2022-11-04T00:48:58.534Z,5.25
2022-11-04T00:51:28.763Z,4.18
2022-11-04T00:53:58.232Z,5.47
2022-11-04T00:56:26.967Z,5.60
2022-11-04T00:58:55.242Z,6.13
2022-11-04T01:01:23.906Z,4.97
2022-11-04T01:03:53.937Z,4.97
2022-11-04T01:06:24.208Z,4.40
2022-11-04T01:08:58.262Z,5.25
2022-11-04T01:11:28.372Z,4.40
2022-11-04T01:13:57.503Z,4.65
2022-11-04T01:18:57.052Z,6.07
2022-11-04T01:21:25.637Z,4.93
2022-11-04T01:23:54.050Z,4.35
2022-11-04T01:26:25.865Z,5.55
2022-11-04T01:28:55.715Z,5.30
2022-11-04T01:31:26.389Z,5.28
2022-11-04T01:33:55.959Z,4.65
2022-11-04T01:36:25.586Z,5.20
2022-11-04T01:38:55.544Z,4.90
2022-11-04T01:41:27.973Z,4.35
2022-11-04T01:43:57.707Z,4.85
2022-11-04T01:46:36.680Z,4.70
2022-11-04T01:49:18.474Z,4.65
2022-11-04T01:51:49.510Z,5.22
2022-11-04T01:54:19.310Z,6.40
2022-11-04T01:56:50.168Z,6.05
2022-11-04T01:59:23.162Z,4.88
2022-11-04T02:01:51.895Z,5.50
2022-11-04T02:04:26.955Z,5.30
2022-11-04T02:06:58.272Z,4.65
2022-11-04T02:09:28.624Z,5.53
2022-11-04T02:12:16.136Z,5.75
2022-11-04T02:14:45.683Z,5.20
2022-11-04T02:17:41.337Z,5.07
2022-11-04T02:20:44.326Z,5.75
2022-11-04T02:23:59.419Z,5.03
2022-11-04T02:27:04.327Z,5.53
2022-11-04T02:30:00.196Z,4.93
2022-11-04T02:32:37.343Z,5.50
2022-11-04T02:35:13.278Z,5.13
2022-11-04T02:40:34.945Z,5.40
2022-11-04T02:43:10.307Z,5.28
2022-11-04T02:45:43.659Z,4.65
2022-11-04T02:48:18.651Z,5.05
2022-11-04T02:50:53.599Z,4.70
2022-11-04T02:53:25.096Z,5.38
2022-11-04T02:55:56.645Z,4.45
2022-11-04T02:58:30.245Z,4.70
2022-11-04T03:01:02.305Z,4.93
2022-11-04T03:03:35.263Z,4.63
2022-11-04T03:06:05.946Z,5.13
2022-11-04T03:08:37.217Z,4.70
2022-11-04T03:11:12.482Z,4.47
2022-11-04T03:13:45.004Z,4.65
2022-11-04T03:16:18.551Z,5.68
2022-11-04T03:18:56.915Z,4.47
2022-11-04T03:21:28.298Z,5.18
2022-11-04T03:23:57.061Z,4.82
2022-11-04T03:26:34.643Z,4.22
2022-11-04T03:29:14.404Z,4.63
2022-11-04T03:31:50.835Z,4.63
2022-11-04T03:34:19.341Z,5.10
2022-11-04T03:36:47.919Z,4.97
2022-11-04T03:39:16.444Z,4.97
2022-11-04T03:41:49.348Z,5.00
2022-11-04T03:44:17.733Z,5.07
2022-11-04T03:46:47.930Z,5.55
2022-11-04T03:49:17.517Z,4.80
2022-11-04T03:51:46.098Z,5.43
2022-11-04T03:54:15.819Z,4.88
2022-11-04T03:57:06.794Z,4.93
2022-11-04T03:59:50.287Z,5.35
2022-11-04T04:02:23.879Z,5.13
2022-11-04T04:05:00.017Z,5.15
2022-11-04T04:07:35.020Z,5.32
2022-11-04T04:10:30.145Z,5.45
2022-11-04T04:13:01.951Z,4.80
2022-11-04T04:15:42.276Z,5.72
2022-11-04T04:18:15.958Z,4.35
2022-11-04T04:20:48.107Z,5.28
2022-11-04T04:23:38.863Z,5.13
2022-11-04T04:26:27.934Z,4.22
2022-11-04T04:28:58.792Z,4.72
2022-11-04T04:31:45.895Z,4.95
2022-11-04T04:34:16.534Z,4.55
2022-11-04T04:36:48.091Z,4.38
2022-11-04T04:39:39.146Z,5.32
2022-11-04T04:42:26.072Z,5.43
2022-11-04T04:45:01.275Z,5.78
2022-11-04T04:47:35.948Z,4.78
2022-11-04T04:50:07.092Z,5.20
2022-11-04T04:52:39.865Z,5.47
2022-11-04T04:55:09.768Z,4.65
2022-11-04T04:57:38.215Z,5.75
2022-11-04T05:00:09.347Z,4.53
2022-11-04T05:02:37.808Z,5.07
2022-11-04T05:05:08.960Z,5.45
2022-11-04T05:07:37.219Z,5.32
2022-11-04T05:10:06.502Z,5.60
2022-11-04T05:12:54.028Z,6.13
2022-11-04T05:15:22.768Z,5.50
2022-11-04T05:17:55.668Z,3.90
2022-11-04T05:20:26.201Z,5.13
2022-11-04T05:22:55.907Z,4.07
2022-11-04T05:25:24.437Z,5.03
2022-11-04T05:27:52.676Z,4.22
2022-11-04T05:30:21.407Z,4.47
2022-11-04T05:32:49.923Z,4.95
2022-11-04T05:35:18.508Z,4.03
2022-11-04T05:37:48.169Z,4.28
2022-11-04T05:40:16.877Z,4.95
2022-11-04T05:42:45.422Z,3.88
2022-11-04T05:45:14.034Z,3.97
2022-11-04T05:47:42.336Z,4.93
2022-11-04T05:50:11.114Z,4.85
2022-11-04T05:52:39.377Z,4.85
2022-11-04T05:55:10.058Z,4.20
2022-11-04T05:57:38.384Z,4.53
2022-11-04T06:00:08.020Z,4.28
2022-11-04T06:02:36.279Z,5.40
2022-11-04T06:05:05.161Z,5.03
2022-11-04T06:07:33.574Z,5.85
2022-11-04T06:10:02.091Z,5.00
2022-11-04T06:12:31.947Z,5.20
2022-11-04T06:15:00.487Z,4.95
2022-11-04T06:17:28.731Z,5.63
2022-11-04T06:19:57.536Z,4.07
2022-11-04T06:22:25.768Z,5.15
2022-11-04T06:24:54.358Z,3.95
2022-11-04T06:27:22.642Z,4.00
2022-11-04T06:29:53.713Z,5.57
2022-11-04T06:32:21.992Z,4.88
2022-11-04T06:34:50.436Z,5.28
2022-11-04T06:37:19.004Z,4.85
2022-11-04T06:39:47.590Z,5.78
2022-11-04T06:42:15.961Z,6.13
2022-11-04T06:44:44.545Z,4.85
2022-11-04T06:47:14.143Z,5.45
2022-11-04T06:49:42.703Z,5.10
2022-11-04T06:52:10.930Z,5.18
2022-11-04T06:54:39.512Z,4.75
2022-11-04T06:57:07.794Z,4.50
2022-11-04T06:59:36.344Z,5.80
2022-11-04T07:02:04.973Z,4.80
2022-11-04T07:04:35.321Z,5.45
2022-11-04T07:07:03.607Z,5.28
2022-11-04T07:09:32.187Z,4.63
2022-11-04T07:12:00.469Z,5.18
2022-11-04T07:14:29.286Z,4.25
2022-11-04T07:16:57.634Z,5.00
2022-11-04T07:19:26.212Z,5.45
2022-11-04T07:21:55.749Z,5.10
2022-11-04T07:24:24.405Z,4.72
2022-11-04T07:26:55.154Z,5.15
2022-11-04T07:29:25.417Z,5.60
2022-11-04T07:31:54.385Z,4.60
2022-11-04T07:34:23.202Z,5.63
2022-11-04T07:36:51.413Z,6.22
2022-11-04T07:39:21.348Z,4.90
2022-11-04T07:41:49.614Z,5.35
2022-11-04T07:44:18.311Z,5.00
2022-11-04T07:46:46.570Z,5.93
2022-11-04T07:49:15.073Z,6.22
2022-11-04T07:51:43.348Z,5.65
2022-11-04T07:54:12.210Z,5.97
2022-11-04T07:56:41.873Z,4.80
2022-11-04T07:59:11.527Z,5.68
2022-11-04T08:01:40.314Z,5.60
2022-11-04T08:04:08.889Z,5.07
2022-11-04T08:06:37.190Z,6.15
2022-11-04T08:09:05.977Z,5.90
2022-11-04T08:11:34.445Z,5.88
2022-11-04T08:14:05.573Z,5.65
2022-11-04T08:16:34.648Z,6.22
2022-11-04T08:19:03.388Z,6.47
2022-11-04T08:21:32.787Z,4.63
2022-11-04T08:24:03.368Z,5.03
2022-11-04T08:26:31.867Z,6.65
2022-11-04T08:29:01.458Z,5.80
2022-11-04T08:31:33.710Z,5.80
2022-11-04T08:34:03.252Z,5.80
2022-11-04T08:36:34.446Z,5.50
2022-11-04T08:39:10.288Z,7.03
2022-11-04T08:41:41.997Z,7.05
2022-11-04T08:44:11.772Z,6.65
2022-11-04T08:46:43.171Z,6.65
2022-11-04T08:49:14.945Z,6.07
2022-11-04T08:51:49.542Z,6.78
2022-11-04T08:54:18.088Z,6.50
2022-11-04T08:56:46.308Z,6.80
2022-11-04T08:59:15.163Z,7.20
2022-11-04T09:01:45.252Z,6.53
2022-11-04T09:04:14.415Z,6.80
2022-11-04T09:06:46.075Z,6.65
2022-11-04T09:09:16.201Z,7.03
2022-11-04T09:11:46.498Z,6.63
2022-11-04T09:14:17.842Z,6.60
2022-11-04T09:16:47.452Z,6.18
2022-11-04T09:19:16.234Z,7.28
2022-11-04T09:21:44.432Z,6.40
2022-11-04T09:24:13.178Z,6.45
2022-11-04T09:26:41.564Z,5.93
2022-11-04T09:29:10.214Z,7.30
2022-11-04T09:31:39.109Z,7.22
2022-11-04T09:34:08.917Z,6.93
2022-11-04T09:36:37.230Z,6.72
2022-11-04T09:39:06.216Z,6.30
2022-11-04T09:42:00.085Z,7.03
2022-11-04T09:45:06.871Z,6.50
2022-11-04T09:47:32.686Z,7.00
2022-11-04T09:50:07.513Z,6.95
2022-11-04T09:52:40.604Z,6.20
2022-11-04T09:55:17.337Z,6.78
2022-11-04T09:57:46.091Z,7.07
2022-11-04T10:00:18.125Z,6.68
2022-11-04T10:02:59.809Z,5.78
2022-11-04T10:05:58.551Z,6.35
2022-11-04T10:08:51.851Z,6.90
2022-11-04T10:11:26.535Z,6.88
2022-11-04T10:14:10.705Z,6.97
2022-11-04T10:16:54.515Z,7.35
2022-11-04T10:19:47.490Z,6.05
2022-11-04T10:22:29.120Z,6.45
2022-11-04T10:25:07.372Z,5.88
2022-11-04T10:27:38.818Z,6.00
2022-11-04T10:30:16.742Z,6.95
2022-11-04T10:32:54.681Z,8.20
2022-11-04T10:35:31.524Z,6.93
2022-11-04T10:38:15.497Z,6.22
2022-11-04T10:40:46.865Z,6.22
2022-11-04T10:43:19.228Z,7.22
2022-11-04T10:45:59.532Z,6.75
2022-11-04T10:48:34.212Z,6.05
2022-11-04T10:51:03.138Z,6.22
2022-11-04T10:53:34.544Z,6.95
2022-11-04T10:56:07.971Z,6.97
2022-11-04T10:58:41.059Z,7.57
2022-11-04T11:01:25.572Z,6.35
2022-11-04T11:03:54.683Z,6.30
2022-11-04T11:06:28.457Z,7.47
2022-11-04T11:09:00.834Z,5.80
2022-11-04T11:11:41.287Z,5.43
2022-11-04T11:14:34.098Z,6.53
2022-11-04T11:17:21.565Z,5.68
2022-11-04T11:19:55.878Z,6.32
2022-11-04T11:22:33.278Z,6.07
2022-11-04T11:25:26.791Z,6.15
2022-11-04T11:27:57.759Z,4.40
2022-11-04T11:30:31.488Z,5.25
2022-11-04T11:33:03.851Z,6.18
2022-11-04T11:35:41.305Z,5.70
2022-11-04T11:38:20.131Z,6.50
2022-11-04T11:41:18.666Z,5.75
2022-11-04T11:43:45.041Z,5.65
2022-11-04T11:46:14.437Z,5.93
2022-11-04T11:48:45.483Z,5.22
2022-11-04T11:51:15.726Z,5.72
2022-11-04T11:54:23.119Z,5.80
2022-11-04T12:02:44.072Z,5.70
2022-11-04T12:11:11.207Z,7.85
2022-11-04T12:13:45.282Z,6.60
2022-11-04T12:16:33.444Z,6.88
2022-11-04T12:19:26.971Z,6.15
2022-11-04T12:22:01.235Z,6.57
2022-11-04T12:24:37.400Z,7.05
2022-11-04T12:27:13.801Z,5.22
2022-11-04T12:30:01.462Z,6.80
2022-11-04T12:32:40.786Z,6.88
2022-11-04T12:35:24.960Z,6.80
2022-11-04T12:38:08.675Z,6.00
2022-11-04T12:41:05.094Z,7.88
2022-11-04T12:43:44.948Z,5.88
2022-11-04T12:46:23.939Z,6.85
2022-11-04T12:49:13.953Z,6.22
2022-11-04T12:51:55.163Z,6.80
2022-11-04T12:54:41.805Z,6.25
2022-11-04T12:57:19.845Z,6.38
2022-11-04T13:00:10.834Z,6.43
2022-11-04T13:02:46.972Z,6.63
2022-11-04T13:05:43.320Z,6.22
2022-11-04T13:08:20.293Z,6.50
2022-11-04T13:10:54.098Z,7.28
2022-11-04T13:13:27.809Z,7.68
2022-11-04T13:16:00.460Z,7.32
2022-11-04T13:18:36.571Z,7.90
2022-11-04T13:21:08.370Z,8.23
2022-11-04T13:23:42.383Z,7.47
2022-11-04T13:26:15.524Z,8.13
2022-11-04T13:28:45.777Z,6.22
2022-11-04T13:31:23.169Z,7.15
2022-11-04T13:34:00.458Z,6.38
2022-11-04T13:36:38.284Z,6.50
2022-11-04T13:39:13.335Z,6.22
2022-11-04T13:42:03.414Z,6.80
2022-11-04T13:44:38.045Z,6.22
2022-11-04T13:47:21.603Z,5.50
2022-11-04T13:49:55.378Z,6.60
2022-11-04T13:52:25.333Z,6.25
2022-11-04T13:54:57.350Z,6.28
2022-11-04T13:57:28.194Z,5.80
2022-11-04T14:00:25.501Z,5.75
2022-11-04T14:02:55.005Z,5.93
2022-11-04T14:06:05.832Z,7.35
2022-11-04T14:08:34.363Z,6.18
2022-11-04T14:11:09.175Z,5.93
2022-11-04T14:13:47.966Z,5.90
2022-11-04T14:16:46.714Z,6.15
2022-11-04T14:19:59.845Z,6.38
2022-11-04T14:22:38.897Z,7.28
2022-11-04T14:25:26.933Z,4.90
2022-11-04T14:27:57.887Z,6.47
2022-11-04T14:30:32.178Z,6.00
2022-11-04T14:33:04.033Z,6.70
2022-11-04T14:35:33.150Z,5.85
2022-11-04T14:38:15.112Z,14.25
2022-11-04T14:40:50.063Z,7.93
2022-11-04T14:43:35.995Z,8.00
2022-11-04T14:46:04.754Z,7.50
2022-11-04T14:48:33.615Z,7.57
2022-11-04T14:51:02.020Z,6.85
2022-11-04T14:53:34.549Z,7.05
2022-11-04T14:56:13.214Z,7.07
2022-11-04T14:58:56.137Z,6.50
2022-11-04T15:01:31.265Z,7.68
2022-11-04T15:04:13.496Z,9.65
2022-11-04T15:06:57.699Z,30.77
2022-11-04T15:09:30.760Z,40.97
2022-11-04T15:12:25.311Z,26.77
2022-11-04T15:14:53.987Z,22.00
2022-11-04T15:17:25.529Z,19.45
2022-11-04T15:19:57.112Z,15.60
2022-11-04T15:22:25.630Z,16.50
2022-11-04T15:24:56.782Z,13.50
2022-11-04T15:27:29.493Z,11.80
2022-11-04T15:30:00.334Z,11.65
2022-11-04T15:32:28.916Z,9.57
2022-11-04T15:34:58.068Z,9.82
2022-11-04T15:37:29.539Z,9.68
2022-11-04T15:40:00.112Z,9.77
2022-11-04T15:42:43.094Z,8.25
2022-11-04T15:45:38.782Z,8.68
2022-11-04T15:48:30.571Z,7.53
2022-11-04T15:51:19.878Z,7.60
2022-11-04T15:53:52.122Z,6.65
2022-11-04T15:56:25.035Z,6.22
2022-11-04T15:58:55.514Z,6.75
2022-11-04T16:01:24.479Z,6.25
2022-11-04T16:03:55.593Z,6.88
2022-11-04T16:06:35.728Z,6.38
2022-11-04T16:09:19.032Z,6.78
2022-11-04T16:12:07.995Z,7.70
2022-11-04T16:14:37.295Z,6.80
2022-11-04T16:17:05.871Z,6.63
2022-11-04T16:19:34.625Z,6.93
2022-11-04T16:22:06.540Z,6.80
2022-11-04T16:24:37.933Z,7.07
2022-11-04T16:27:10.719Z,6.85
2022-11-04T16:29:42.731Z,8.68
2022-11-04T16:32:18.895Z,6.68
2022-11-04T16:34:49.804Z,6.53
2022-11-04T16:37:18.504Z,6.70
2022-11-04T16:39:47.433Z,7.93
2022-11-04T16:42:17.678Z,9.30
2022-11-04T16:44:50.823Z,8.65
2022-11-04T16:47:20.227Z,9.20
2022-11-04T16:49:48.856Z,10.52
2022-11-04T16:52:22.932Z,9.90
2022-11-04T16:54:51.444Z,11.60
2022-11-04T16:57:21.065Z,9.50
2022-11-04T16:59:49.804Z,12.05
2022-11-04T17:02:24.221Z,12.65
2022-11-04T17:04:53.103Z,11.60
2022-11-04T17:07:30.529Z,11.25
2022-11-04T17:10:17.104Z,12.20
2022-11-04T17:12:47.170Z,11.95
2022-11-04T17:15:17.640Z,11.57
2022-11-04T17:17:45.944Z,11.55
2022-11-04T17:20:17.702Z,10.82
2022-11-04T17:22:47.081Z,10.70
2022-11-04T17:25:19.407Z,11.43
2022-11-04T17:27:49.194Z,11.40
2022-11-04T17:30:18.657Z,11.55
2022-11-04T17:32:47.982Z,11.88
2022-11-04T17:35:17.667Z,9.90
2022-11-04T17:37:46.493Z,12.18
2022-11-04T17:40:18.434Z,12.25
2022-11-04T17:43:11.596Z,12.05
2022-11-04T17:45:41.644Z,13.20
2022-11-04T17:48:11.299Z,13.73
2022-11-04T17:50:42.249Z,13.82
2022-11-04T17:53:11.286Z,13.30
2022-11-04T17:55:41.432Z,12.88
2022-11-04T17:58:11.117Z,13.05
2022-11-04T18:00:39.649Z,13.55
2022-11-04T18:03:09.149Z,13.85
2022-11-04T18:05:38.000Z,13.30
2022-11-04T18:08:06.397Z,12.65
2022-11-04T18:10:35.117Z,13.93
2022-11-04T18:13:02.409Z,12.05
2022-11-04T18:15:32.469Z,13.23
2022-11-04T18:18:00.844Z,12.85
2022-11-04T18:20:29.374Z,11.32
2022-11-04T18:22:57.731Z,12.57
2022-11-04T18:25:26.315Z,10.02
2022-11-04T18:27:54.568Z,11.43
2022-11-04T18:30:23.524Z,10.95
2022-11-04T18:32:53.186Z,10.85
2022-11-04T18:35:22.023Z,10.88
2022-11-04T18:37:50.327Z,11.80
2022-11-04T18:40:18.992Z,10.93
2022-11-04T18:42:47.254Z,10.18
2022-11-04T18:45:16.348Z,10.82
2022-11-04T18:47:44.767Z,11.40
2022-11-04T18:50:14.990Z,11.80
2022-11-04T18:52:43.393Z,12.55
2022-11-04T18:55:12.325Z,11.10
2022-11-04T18:57:40.667Z,12.35
2022-11-04T19:00:16.719Z,11.93
2022-11-04T19:02:45.501Z,13.02
2022-11-04T19:05:16.086Z,15.27
2022-11-04T19:07:44.981Z,16.77
2022-11-04T19:10:14.205Z,18.10
2022-11-04T19:13:00.140Z,28.95
2022-11-04T19:15:28.800Z,26.95
2022-11-04T19:17:57.031Z,32.20
2022-11-04T19:20:27.254Z,45.05
2022-11-04T19:22:55.444Z,35.38
2022-11-04T19:25:23.910Z,48.00
2022-11-04T19:28:11.720Z,41.00
2022-11-04T19:30:40.836Z,45.40
2022-11-04T19:33:09.199Z,40.80
2022-11-04T19:35:39.003Z,37.00
2022-11-04T19:38:07.540Z,34.45
2022-11-04T19:40:36.364Z,33.45
2022-11-04T19:43:09.558Z,33.13
2022-11-04T19:45:41.862Z,29.15
2022-11-04T19:48:11.250Z,27.45
2022-11-04T19:50:42.622Z,24.75
2022-11-04T19:53:11.054Z,20.95
2022-11-04T19:55:39.862Z,22.50
2022-11-04T19:58:08.510Z,22.20
2022-11-04T20:00:37.271Z,22.02
2022-11-04T20:03:05.711Z,20.20
2022-11-04T20:05:38.677Z,20.90
2022-11-04T20:08:09.789Z,20.20
2022-11-04T20:10:39.638Z,18.98
2022-11-04T20:13:26.110Z,19.13
2022-11-04T20:15:54.604Z,19.63
2022-11-04T20:18:22.831Z,18.45
2022-11-04T20:20:51.469Z,16.77
2022-11-04T20:23:21.062Z,19.55
2022-11-04T20:25:50.040Z,19.50
2022-11-04T20:28:18.294Z,16.48
2022-11-04T20:30:46.812Z,16.38
2022-11-04T20:33:15.262Z,16.77
2022-11-04T20:35:45.420Z,16.80
2022-11-04T20:38:14.138Z,14.55
2022-11-04T20:40:44.239Z,15.68
2022-11-04T20:43:12.554Z,16.25
2022-11-04T20:45:41.080Z,16.05
2022-11-04T20:48:09.522Z,14.45
2022-11-04T20:50:38.459Z,15.50
2022-11-04T20:53:06.728Z,17.83
2022-11-04T20:55:35.230Z,15.13
2022-11-04T20:58:06.374Z,15.27
2022-11-04T21:00:34.857Z,14.13
2022-11-04T21:03:03.588Z,15.43
2022-11-04T21:05:32.130Z,15.75
2022-11-04T21:08:01.043Z,14.77
2022-11-04T21:10:29.581Z,12.77
2022-11-04T21:12:57.832Z,14.35
2022-11-04T21:15:42.983Z,13.27
2022-11-04T21:18:12.965Z,13.10
2022-11-04T21:20:43.565Z,12.88
2022-11-04T21:23:13.956Z,14.35
2022-11-04T21:25:44.259Z,13.05
2022-11-04T21:28:13.976Z,13.52
2022-11-04T21:30:46.137Z,14.68
2022-11-04T21:33:14.959Z,13.52
2022-11-04T21:35:44.489Z,13.43
2022-11-04T21:38:15.839Z,13.25
2022-11-04T21:40:45.743Z,11.95
2022-11-04T21:43:14.623Z,13.45
2022-11-04T21:45:44.802Z,11.93
2022-11-04T21:48:13.481Z,11.05
2022-11-04T21:50:42.267Z,11.95
2022-11-04T21:53:10.668Z,11.52
2022-11-04T21:55:39.270Z,11.63
2022-11-04T21:58:07.705Z,10.73
2022-11-04T22:00:36.516Z,11.48
2022-11-04T22:03:06.110Z,10.80
2022-11-04T22:05:34.663Z,11.30
2022-11-04T22:08:18.168Z,10.15
2022-11-04T22:10:47.224Z,10.02
2022-11-04T22:13:15.526Z,10.82
2022-11-04T22:15:59.602Z,11.38
2022-11-04T22:18:31.119Z,10.63
2022-11-04T22:21:03.362Z,10.40
2022-11-04T22:23:31.665Z,10.85
2022-11-04T22:26:01.491Z,11.38
2022-11-04T22:28:30.373Z,12.70
2022-11-04T22:31:05.075Z,12.73
2022-11-04T22:33:34.917Z,12.60
2022-11-04T22:36:03.472Z,13.18
2022-11-04T22:38:32.642Z,10.18
2022-11-04T22:41:02.071Z,12.38
2022-11-04T22:43:30.591Z,12.65
2022-11-04T22:46:04.866Z,12.18
2022-11-04T22:48:34.968Z,12.00
2022-11-04T22:51:03.582Z,12.48
2022-11-04T22:53:31.785Z,11.48
2022-11-04T22:56:01.575Z,12.75
2022-11-04T22:58:30.422Z,11.88
2022-11-04T23:01:02.063Z,14.52
2022-11-04T23:03:30.778Z,13.20
2022-11-04T23:06:03.379Z,13.15
2022-11-04T23:08:33.292Z,14.65
2022-11-04T23:11:22.177Z,12.57
2022-11-04T23:14:13.209Z,12.95
2022-11-04T23:17:05.506Z,11.88
2022-11-04T23:19:33.900Z,11.00
2022-11-04T23:22:21.517Z,11.45
2022-11-04T23:25:09.721Z,12.65
2022-11-04T23:27:58.045Z,9.82
2022-11-04T23:30:27.132Z,10.77
2022-11-04T23:32:56.954Z,12.38
2022-11-04T23:35:45.302Z,10.30
2022-11-04T23:38:15.396Z,11.77
2022-11-04T23:41:04.317Z,12.13
2022-11-04T23:43:33.165Z,12.35
2022-11-04T23:46:19.158Z,10.38
2022-11-04T23:49:05.642Z,11.02
2022-11-04T23:51:51.679Z,10.70
2022-11-04T23:54:38.012Z,11.93
2022-11-04T23:57:30.119Z,11.45
